Time;durP1;ratioP1;P1;durP2;ratioP2;P2;SDS_P1;SDS_P2;PMS_P1;PMS_P2;Temp;Humidity;BMP_temperature;BMP_pressure;BME280_temperature;BME280_humidity;BME280_pressure;Samples;Min_cycle;Max_cycle;Signal;HPM_P1;HPM_P2
2023/08/24 00:00:33;;;;;;;6.15;5.55;;;;;;;-141.84;76.32;21007.00;5057695;28;20226;-62
2023/08/24 00:03:03;;;;;;;5.88;5.38;;;;;;;-141.84;76.65;20988.72;5048378;28;20201;-59
2023/08/24 00:05:36;;;;;;;6.22;5.63;;;;;;;-141.84;76.82;20986.69;5037808;28;20206;-60
2023/08/24 00:08:06;;;;;;;6.15;5.55;;;;;;;-141.84;77.03;20919.59;5037326;28;20636;-60
2023/08/24 00:10:37;;;;;;;6.47;5.88;;;;;;;-141.84;76.51;20992.78;5037647;28;20198;-60
2023/08/24 00:13:06;;;;;;;5.95;5.40;;;;;;;-141.84;76.07;20986.69;5037884;28;20218;-60
2023/08/24 00:15:36;;;;;;;6.00;5.60;;;;;;;-141.84;75.01;21031.41;5037784;28;20288;-61
2023/08/24 00:18:05;;;;;;;6.15;5.55;;;;;;;-141.84;75.52;21027.34;5054518;28;20258;-60
2023/08/24 00:20:33;;;;;;;6.75;6.15;;;;;;;-141.84;76.37;21007.00;5054659;28;20212;-59
2023/08/24 00:23:02;;;;;;;6.38;5.88;;;;;;;-141.84;76.60;20968.38;5054451;28;20205;-59
2023/08/24 00:25:31;;;;;;;6.70;6.10;;;;;;;-141.84;77.28;20980.59;5054416;28;20251;-61
2023/08/24 00:28:01;;;;;;;6.13;5.57;;;;;;;-141.84;77.54;20956.19;5054157;28;20244;-61
2023/08/24 00:30:30;;;;;;;6.70;6.03;;;;;;;-141.84;78.13;20899.28;5054709;28;20208;-59
2023/08/24 00:32:59;;;;;;;6.47;5.88;;;;;;;-141.84;78.90;20917.56;5053564;28;20221;-60
2023/08/24 00:35:27;;;;;;;6.93;6.25;;;;;;;-141.84;78.85;20907.41;5054411;28;20205;-59
2023/08/24 00:37:56;;;;;;;7.55;6.50;;;;;;;-141.84;78.85;20927.72;5040261;28;20583;-59
2023/08/24 00:40:26;;;;;;;7.03;6.40;;;;;;;-141.84;79.01;20964.31;5034228;28;20308;-60
2023/08/24 00:42:55;;;;;;;6.85;6.25;;;;;;;-141.84;79.18;20917.56;5034016;28;20265;-60
2023/08/24 00:45:24;;;;;;;6.95;6.30;;;;;;;-141.84;79.70;20895.19;5034264;28;20244;-60
2023/08/24 00:47:54;;;;;;;7.40;6.70;;;;;;;-141.84;79.60;20948.06;5031766;28;20642;-61
2023/08/24 00:50:23;;;;;;;7.78;7.00;;;;;;;-141.84;79.23;20919.59;5034116;28;20234;-60
2023/08/24 00:52:51;;;;;;;6.95;6.20;;;;;;;-141.84;78.78;20921.63;5043051;28;20719;-60
2023/08/24 00:55:21;;;;;;;9.13;6.50;;;;;;;-141.84;78.70;20909.44;5054306;28;20201;-59
2023/08/24 00:57:50;;;;;;;7.45;6.82;;;;;;;-141.84;78.94;20901.31;5053959;28;20225;-60
2023/08/24 01:00:19;;;;;;;7.30;6.70;;;;;;;-141.84;78.71;20883.00;5053524;28;20243;-59
2023/08/24 01:02:49;;;;;;;7.28;6.68;;;;;;;-141.84;78.73;20895.19;5045493;28;20191;-60
2023/08/24 01:05:18;;;;;;;7.50;6.75;;;;;;;-141.84;79.26;20905.38;5034095;28;20209;-59
2023/08/24 01:07:46;;;;;;;9.23;6.60;;;;;;;-141.84;79.80;20897.25;5032976;28;20292;-61
2023/08/24 01:10:16;;;;;;;7.70;7.00;;;;;;;-141.84;79.93;20883.00;5034121;28;20202;-60
2023/08/24 01:13:05;;;;;;;7.65;7.05;;;;;;;-141.84;80.23;20874.88;5033673;28;20249;-59
2023/08/24 01:15:38;;;;;;;7.38;6.70;;;;;;;-141.84;80.84;20887.06;5033757;28;20222;-60
2023/08/24 01:18:15;;;;;;;8.25;6.50;;;;;;;-141.84;81.57;20824.06;5013253;28;20362;-59
2023/08/24 01:20:44;;;;;;;7.90;7.15;;;;;;;-141.84;81.77;20862.69;5013768;28;20202;-59
2023/08/24 01:23:27;;;;;;;7.88;7.10;;;;;;;-141.84;81.91;20817.94;5013724;28;20301;-59
2023/08/24 01:26:05;;;;;;;7.45;6.85;;;;;;;-141.84;82.31;20834.22;5013353;28;20194;-60
2023/08/24 01:28:34;;;;;;;7.80;7.05;;;;;;;-141.84;82.64;20826.09;5013641;28;20678;-59
2023/08/24 01:31:04;;;;;;;8.48;7.57;;;;;;;-141.84;83.04;20803.72;5013165;28;20569;-61
2023/08/24 01:33:33;;;;;;;10.27;7.80;;;;;;;-141.84;83.01;20826.09;5012994;28;20210;-60
2023/08/24 01:36:01;;;;;;;8.05;7.35;;;;;;;-141.84;82.28;20805.75;5013334;28;20659;-60
2023/08/24 01:38:31;;;;;;;8.75;7.88;;;;;;;-141.84;82.10;20807.78;5030482;28;20210;-60
2023/08/24 01:41:10;;;;;;;7.80;7.20;;;;;;;-141.84;82.03;20840.31;5033149;28;20198;-60
2023/08/24 01:43:39;;;;;;;8.23;7.43;;;;;;;-141.84;81.52;20801.69;5033031;28;20353;-60
2023/08/24 01:46:15;;;;;;;8.40;7.70;;;;;;;-141.84;81.24;20817.94;5037127;28;20551;-60
2023/08/24 01:48:45;;;;;;;8.52;7.65;;;;;;;-141.84;81.27;20805.75;5052252;28;20269;-59
2023/08/24 01:51:14;;;;;;;7.75;7.00;;;;;;;-141.84;81.36;20779.31;5052628;28;20296;-59
2023/08/24 01:53:43;;;;;;;9.10;8.25;;;;;;;-141.84;81.40;20799.66;5052727;28;20221;-59
2023/08/24 01:56:14;;;;;;;8.25;7.55;;;;;;;-141.84;81.36;20793.56;5052797;28;20225;-60
2023/08/24 01:58:43;;;;;;;8.48;7.75;;;;;;;-141.84;81.32;20781.38;5052743;28;20276;-59
2023/08/24 02:01:12;;;;;;;8.82;7.93;;;;;;;-141.84;81.54;20759.00;5052216;28;20771;-60
2023/08/24 02:03:41;;;;;;;8.65;7.95;;;;;;;-141.84;81.98;20820.00;5037689;28;20198;-60
2023/08/24 02:06:09;;;;;;;9.60;8.02;;;;;;;-141.84;82.03;20783.41;5032702;28;20627;-60
2023/08/24 02:08:38;;;;;;;8.70;7.82;;;;;;;-141.84;82.28;20752.91;5031790;28;20309;-60
2023/08/24 02:11:06;;;;;;;8.40;7.80;;;;;;;-141.84;82.41;20763.06;5032337;28;20669;-60
2023/08/24 02:13:36;;;;;;;9.50;8.20;;;;;;;-141.84;81.94;20708.19;5032198;28;20643;-60
2023/08/24 02:16:06;;;;;;;8.65;7.85;;;;;;;-141.84;82.05;20769.16;5035468;28;20532;-59
2023/08/24 02:18:34;;;;;;;8.35;7.65;;;;;;;-141.84;82.30;20789.50;5032232;28;20214;-60
2023/08/24 02:21:10;;;;;;;10.00;8.38;;;;;;;-141.84;82.45;20769.16;5032442;28;20201;-60
2023/08/24 02:23:39;;;;;;;9.32;8.38;;;;;;;-141.84;82.05;20756.97;5031904;28;20193;-59
2023/08/24 02:26:07;;;;;;;8.10;7.40;;;;;;;-141.84;82.49;20744.78;5030593;28;20202;-60
2023/08/24 02:28:38;;;;;;;8.32;7.60;;;;;;;-141.84;83.24;20767.13;5032554;28;20284;-60
2023/08/24 02:31:07;;;;;;;9.82;7.93;;;;;;;-141.84;83.39;20732.56;5032217;28;20186;-61
2023/08/24 02:33:35;;;;;;;11.02;8.05;;;;;;;-141.84;83.10;20724.44;5032195;28;20218;-60
2023/08/24 02:36:04;;;;;;;9.50;8.60;;;;;;;-141.84;82.37;20769.16;5031658;28;20240;-60
2023/08/24 02:38:33;;;;;;;9.52;8.63;;;;;;;-141.84;81.94;20783.41;5032014;28;20289;-60
2023/08/24 02:41:03;;;;;;;8.40;7.68;;;;;;;-141.84;82.67;20740.69;5031177;28;20206;-60
2023/08/24 02:43:32;;;;;;;9.00;8.23;;;;;;;-141.84;83.02;20742.75;5031996;28;20234;-60
2023/08/24 02:46:06;;;;;;;9.35;8.50;;;;;;;-141.84;82.90;20746.81;5034242;28;20220;-60
2023/08/24 02:48:35;;;;;;;8.82;8.05;;;;;;;-141.84;83.50;20712.25;5052262;28;20193;-61
2023/08/24 02:51:06;;;;;;;12.18;8.30;;;;;;;-141.84;84.00;20689.88;5051423;28;20197;-59
2023/08/24 02:53:34;;;;;;;9.25;8.35;;;;;;;-141.84;84.43;20742.75;5051195;28;20228;-60
2023/08/24 02:56:03;;;;;;;9.30;8.07;;;;;;;-141.84;84.53;20708.19;5051893;28;20288;-60
2023/08/24 02:58:32;;;;;;;8.77;7.97;;;;;;;-141.84;84.84;20712.25;5052019;28;20300;-60
2023/08/24 03:01:06;;;;;;;9.35;8.45;;;;;;;-141.84;85.12;20691.91;5051799;28;20292;-59
2023/08/24 03:03:35;;;;;;;8.32;7.68;;;;;;;-141.84;85.04;20708.19;5037956;28;20532;-60
2023/08/24 03:06:05;;;;;;;9.45;8.55;;;;;;;-141.84;84.79;20718.34;5030948;28;20661;-60
2023/08/24 03:08:34;;;;;;;9.77;8.77;;;;;;;-141.84;84.49;20693.94;5031758;28;20208;-60
2023/08/24 03:11:03;;;;;;;9.80;8.82;;;;;;;-141.84;84.21;20732.56;5031383;28;20301;-60
2023/08/24 03:13:32;;;;;;;9.70;8.75;;;;;;;-141.84;84.55;20671.59;5031679;28;20634;-60
2023/08/24 03:16:07;;;;;;;8.85;8.07;;;;;;;-141.84;85.24;20693.94;5034463;28;20209;-60
2023/08/24 03:18:36;;;;;;;9.50;8.68;;;;;;;-141.84;85.66;20689.88;5051616;28;20193;-60
2023/08/24 03:21:04;;;;;;;9.07;8.32;;;;;;;-141.84;86.27;20675.66;5051318;28;20275;-59
2023/08/24 03:23:33;;;;;;;11.30;9.30;;;;;;;-141.84;86.30;20691.91;5051408;28;20198;-60
2023/08/24 03:26:01;;;;;;;11.18;9.10;;;;;;;-141.84;86.66;20651.25;5051512;28;20205;-58
2023/08/24 03:28:30;;;;;;;10.50;9.60;;;;;;;-141.84;86.51;20685.81;5051783;28;20198;-60
2023/08/24 03:30:59;;;;;;;10.13;9.10;;;;;;;-141.84;85.96;20689.88;5051586;28;20201;-59
2023/08/24 03:33:29;;;;;;;10.35;9.35;;;;;;;-141.84;85.70;20734.59;5050925;28;20703;-59
2023/08/24 03:35:57;;;;;;;9.88;8.90;;;;;;;-141.84;85.91;20691.91;5050906;28;20293;-59
2023/08/24 03:38:26;;;;;;;10.80;9.07;;;;;;;-141.84;86.57;20693.94;5051350;28;20233;-59
2023/08/24 03:41:02;;;;;;;10.25;9.32;;;;;;;-141.84;87.00;20647.19;5036360;28;20616;-60
2023/08/24 03:43:34;;;;;;;10.38;9.43;;;;;;;-141.84;87.35;20671.59;5031369;28;20225;-59
2023/08/24 03:46:03;;;;;;;12.75;10.15;;;;;;;-141.84;87.42;20659.38;5034121;28;20715;-60
2023/08/24 03:48:35;;;;;;;11.25;9.73;;;;;;;-141.84;87.78;20659.38;5051126;28;20211;-60
2023/08/24 03:51:03;;;;;;;11.35;10.25;;;;;;;-141.84;87.64;20659.38;5051503;28;20236;-59
2023/08/24 03:53:32;;;;;;;11.43;10.10;;;;;;;-141.84;87.69;20628.91;5052164;28;20755;-60
2023/08/24 03:56:00;;;;;;;11.07;10.00;;;;;;;-141.84;87.74;20622.81;5054707;28;20681;-60
2023/08/24 03:58:29;;;;;;;10.82;9.73;;;;;;;-141.84;86.88;20663.47;5055029;28;20201;-59
2023/08/24 04:00:57;;;;;;;10.57;9.52;;;;;;;-141.84;86.37;20647.19;5054938;28;20225;-59
2023/08/24 04:03:26;;;;;;;10.40;9.40;;;;;;;-141.84;86.89;20665.50;5041931;28;20202;-60
2023/08/24 04:05:56;;;;;;;10.93;9.82;;;;;;;-141.84;86.83;20657.34;5034930;28;20206;-60
2023/08/24 04:08:24;;;;;;;10.43;9.43;;;;;;;-141.84;86.75;20639.06;5034537;28;20662;-59
2023/08/24 04:10:53;;;;;;;10.82;9.85;;;;;;;-141.84;86.67;20667.53;5034051;28;20216;-59
2023/08/24 04:13:22;;;;;;;9.88;8.90;;;;;;;-141.84;86.57;20693.94;5034804;28;20309;-60
2023/08/24 04:15:51;;;;;;;9.82;8.55;;;;;;;-141.84;86.82;20624.84;5036068;28;20502;-60
2023/08/24 04:18:19;;;;;;;9.93;8.93;;;;;;;-141.84;87.02;20616.69;5032521;28;20757;-60
2023/08/24 04:20:48;;;;;;;10.73;9.70;;;;;;;-141.84;86.89;20657.34;5034308;28;20569;-61
2023/08/24 04:23:17;;;;;;;9.68;8.80;;;;;;;-141.84;86.32;20653.28;5034595;28;20289;-60
2023/08/24 04:25:46;;;;;;;10.82;9.82;;;;;;;-141.84;85.91;20620.78;5034254;28;20240;-60
2023/08/24 04:28:14;;;;;;;11.20;10.00;;;;;;;-141.84;85.48;20687.84;5034372;28;20705;-59
2023/08/24 04:30:51;;;;;;;10.07;9.18;;;;;;;-141.84;85.17;20693.94;5034226;28;20306;-58
2023/08/24 04:33:19;;;;;;;10.10;9.10;;;;;;;-141.84;84.58;20695.97;5033494;28;20308;-60
2023/08/24 04:35:49;;;;;;;9.95;9.10;;;;;;;-141.84;84.86;20687.84;5034022;28;20209;-60
2023/08/24 04:38:19;;;;;;;10.43;9.45;;;;;;;-141.84;84.99;20687.84;5034392;28;20293;-60
2023/08/24 04:40:52;;;;;;;12.73;9.90;;;;;;;-141.84;83.53;20761.03;5033762;28;20214;-60
2023/08/24 04:43:22;;;;;;;10.05;9.00;;;;;;;-141.84;83.69;20716.31;5033593;28;20268;-60
2023/08/24 04:45:52;;;;;;;10.90;9.80;;;;;;;-141.84;83.96;20689.88;5035134;28;20760;-61
2023/08/24 04:48:20;;;;;;;9.23;8.32;;;;;;;-141.84;84.24;20722.41;5053489;28;20200;-60
2023/08/24 04:50:50;;;;;;;9.63;8.55;;;;;;;-141.84;83.93;20708.19;5053980;28;20205;-60
2023/08/24 04:53:20;;;;;;;11.77;8.77;;;;;;;-141.84;84.04;20718.34;5053827;28;20197;-60
2023/08/24 04:55:49;;;;;;;9.18;8.38;;;;;;;-141.84;83.82;20734.59;5053416;28;20217;-61
2023/08/24 04:58:18;;;;;;;9.75;8.70;;;;;;;-141.84;83.58;20722.41;5053867;28;20636;-60
2023/08/24 05:00:46;;;;;;;9.80;8.85;;;;;;;-141.84;83.48;20748.84;5053755;28;20292;-60
2023/08/24 05:03:15;;;;;;;9.98;8.38;;;;;;;-141.84;83.08;20738.66;5041631;28;20198;-61
2023/08/24 05:05:43;;;;;;;11.65;9.65;;;;;;;-141.84;81.96;20765.09;5033268;28;20284;-59
2023/08/24 05:08:12;;;;;;;10.20;9.25;;;;;;;-141.84;81.77;20773.22;5033711;28;20293;-59
2023/08/24 05:10:43;;;;;;;10.43;9.38;;;;;;;-141.84;80.85;20793.56;5032774;28;20644;-60
2023/08/24 05:13:11;;;;;;;14.95;10.40;;;;;;;-141.84;80.51;20836.25;5033381;28;20757;-60
2023/08/24 05:15:39;;;;;;;10.15;9.32;;;;;;;-141.84;79.01;20846.41;5033557;28;20234;-60
2023/08/24 05:18:08;;;;;;;10.75;9.65;;;;;;;-141.84;78.71;20899.28;5013070;28;20203;-60
2023/08/24 05:20:36;;;;;;;11.00;10.00;;;;;;;-141.84;78.14;20921.63;5013752;28;20621;-61
2023/08/24 05:23:05;;;;;;;10.48;9.50;;;;;;;-141.84;77.99;20923.66;5013734;28;20302;-60
2023/08/24 05:25:34;;;;;;;11.10;10.20;;;;;;;-141.84;76.68;20988.72;5013295;28;20206;-60
2023/08/24 05:28:04;;;;;;;12.13;10.90;;;;;;;-141.84;75.53;21025.31;5013578;28;20217;-60
2023/08/24 05:30:33;;;;;;;10.20;8.90;;;;;;;-141.84;74.47;21053.78;5013600;28;20557;-60
2023/08/24 05:33:01;;;;;;;10.70;9.70;;;;;;;-141.84;72.79;21061.91;5012950;28;20264;-60
2023/08/24 05:35:30;;;;;;;10.25;9.35;;;;;;;-141.84;72.01;21084.28;5021937;28;20214;-60
2023/08/24 05:37:58;;;;;;;10.07;9.13;;;;;;;-141.84;71.33;21135.09;5032877;28;20241;-60
2023/08/24 05:40:27;;;;;;;10.40;9.35;;;;;;;-141.84;70.52;21171.69;5032201;28;20661;-60
2023/08/24 05:42:55;;;;;;;9.85;9.00;;;;;;;-141.84;70.28;21181.84;5032672;28;20260;-59
2023/08/24 05:45:25;;;;;;;7.75;6.95;;;;;;;-141.84;71.15;21198.13;5033053;28;20290;-61
2023/08/24 05:47:54;;;;;;;9.27;8.57;;;;;;;-141.84;69.38;21242.84;5050447;28;20221;-59
2023/08/24 05:50:23;;;;;;;10.13;8.57;;;;;;;-141.84;68.34;21285.53;5052234;28;20288;-60
2023/08/24 05:52:51;;;;;;;10.18;8.73;;;;;;;-141.84;67.92;21305.88;5052882;28;20280;-60
2023/08/24 05:55:20;;;;;;;11.07;8.43;;;;;;;-141.84;68.92;21289.59;5052822;28;20663;-59
2023/08/24 05:57:48;;;;;;;10.93;8.45;;;;;;;-141.84;68.52;21314.00;5038592;28;20220;-60
2023/08/24 06:00:18;;;;;;;11.20;9.20;;;;;;;-141.84;68.20;21271.31;5033111;28;20209;-59
2023/08/24 06:02:48;;;;;;;8.15;7.45;;;;;;;-141.84;67.72;21320.09;5039723;28;20197;-59
2023/08/24 06:05:17;;;;;;;7.97;7.18;;;;;;;-141.84;68.03;21320.09;5051473;28;20201;-61
2023/08/24 06:07:46;;;;;;;10.25;8.23;;;;;;;-141.84;66.75;21383.13;5051412;28;20229;-59
2023/08/24 06:10:15;;;;;;;7.82;7.13;;;;;;;-141.84;67.23;21370.94;5052530;28;20631;-59
2023/08/24 06:12:43;;;;;;;9.82;8.82;;;;;;;-141.84;66.03;21452.25;5052192;28;20239;-59
2023/08/24 06:15:13;;;;;;;10.63;7.75;;;;;;;-141.84;66.32;21448.19;5051960;28;20259;-61
2023/08/24 06:17:42;;;;;;;10.88;7.85;;;;;;;-141.84;66.42;21431.94;5051934;28;20216;-59
2023/08/24 06:20:13;;;;;;;9.27;8.38;;;;;;;-141.84;66.40;21444.13;5051892;28;20632;-60
2023/08/24 06:22:42;;;;;;;8.93;8.02;;;;;;;-141.84;66.17;21436.00;5052325;28;20192;-58
2023/08/24 06:25:11;;;;;;;9.35;7.88;;;;;;;-141.84;65.73;21492.94;5051764;28;20242;-59
2023/08/24 06:27:39;;;;;;;9.60;8.60;;;;;;;-141.84;65.20;21507.16;5052187;28;20626;-61
2023/08/24 06:30:08;;;;;;;9.40;7.97;;;;;;;-141.84;64.60;21553.94;5052283;28;20244;-60
2023/08/24 06:32:37;;;;;;;10.60;7.43;;;;;;;-141.84;65.18;21523.44;5052033;28;20193;-59
2023/08/24 06:35:06;;;;;;;11.35;8.20;;;;;;;-141.84;65.04;21515.28;5052038;28;20217;-59
2023/08/24 06:37:36;;;;;;;10.07;7.00;;;;;;;-141.84;65.27;21525.47;5052078;28;20201;-60
2023/08/24 06:40:06;;;;;;;8.95;6.65;;;;;;;-141.84;65.52;21551.91;5045713;28;20202;-61
2023/08/24 06:42:34;;;;;;;7.75;6.30;;;;;;;-141.84;65.86;21549.84;5032089;28;20202;-60
2023/08/24 06:45:03;;;;;;;8.73;7.43;;;;;;;-141.84;65.13;21592.56;5031777;28;20657;-61
2023/08/24 06:47:31;;;;;;;8.50;6.70;;;;;;;-141.84;65.16;21574.25;5047152;28;20211;-60
2023/08/24 06:50:00;;;;;;;6.97;6.35;;;;;;;-141.84;65.07;21580.34;5051594;28;20276;-60
2023/08/24 06:52:28;;;;;;;7.85;7.03;;;;;;;-141.84;64.82;21566.13;5051500;28;20602;-60
2023/08/24 06:54:58;;;;;;;9.15;6.88;;;;;;;-141.84;64.47;21578.31;5051555;28;20236;-59
2023/08/24 06:57:26;;;;;;;6.20;5.60;;;;;;;-141.84;64.74;21582.38;5052009;28;20207;-60
2023/08/24 06:59:55;;;;;;;7.90;6.45;;;;;;;-141.84;63.92;21633.22;5051786;28;20206;-60
2023/08/24 07:02:23;;;;;;;6.03;5.53;;;;;;;-141.84;63.45;21639.31;5051343;28;20199;-60
2023/08/24 07:04:52;;;;;;;6.10;5.50;;;;;;;-141.84;62.75;21629.16;5051739;28;20193;-59
2023/08/24 07:07:20;;;;;;;8.82;6.10;;;;;;;-141.84;62.56;21675.94;5051728;28;20225;-62
2023/08/24 07:09:48;;;;;;;7.85;6.15;;;;;;;-141.84;61.22;21741.00;5051785;28;20223;-59
2023/08/24 07:12:18;;;;;;;7.32;6.05;;;;;;;-141.84;62.15;21716.59;5051843;28;20235;-59
2023/08/24 07:14:47;;;;;;;8.15;6.38;;;;;;;-141.84;61.78;21722.69;5051199;28;20644;-59
2023/08/24 07:17:15;;;;;;;8.43;5.78;;;;;;;-141.84;60.97;21804.03;5051476;28;20211;-60
2023/08/24 07:19:43;;;;;;;8.15;6.63;;;;;;;-141.84;60.37;21799.97;5051347;28;20240;-60
2023/08/24 07:22:12;;;;;;;7.43;5.72;;;;;;;-141.84;60.94;21838.59;5051538;28;20197;-60
2023/08/24 07:24:41;;;;;;;6.03;5.30;;;;;;;-141.84;60.51;21818.25;5051427;28;20198;-60
2023/08/24 07:27:13;;;;;;;7.28;5.35;;;;;;;-141.84;60.56;21836.56;5052298;28;20182;-59
2023/08/24 07:29:43;;;;;;;7.95;5.93;;;;;;;-141.84;61.88;21844.69;5055619;28;20212;-60
2023/08/24 07:32:12;;;;;;;5.57;5.07;;;;;;;-141.84;62.09;21846.72;5055137;28;20212;-60
2023/08/24 07:34:40;;;;;;;6.45;4.50;;;;;;;-141.84;62.08;21867.06;5055534;28;20202;-60
2023/08/24 07:37:09;;;;;;;7.03;5.03;;;;;;;-141.84;62.14;21846.72;5055536;28;20237;-60
2023/08/24 07:39:39;;;;;;;5.72;4.88;;;;;;;-141.84;61.45;21863.00;5052984;28;20233;-59
2023/08/24 07:42:08;;;;;;;6.10;4.63;;;;;;;-141.84;61.29;21883.31;5035809;28;20196;-60
2023/08/24 07:44:36;;;;;;;7.63;5.13;;;;;;;-141.84;60.16;21972.81;5035288;28;20697;-60
2023/08/24 07:47:06;;;;;;;6.20;5.18;;;;;;;-141.84;59.64;21985.00;5046533;28;20248;-60
2023/08/24 07:49:35;;;;;;;6.22;5.57;;;;;;;-141.84;58.75;22013.47;5055134;28;20240;-60
2023/08/24 07:52:03;;;;;;;7.15;4.45;;;;;;;-141.84;59.17;22037.88;5054998;28;20201;-60
2023/08/24 07:54:32;;;;;;;12.05;5.13;;;;;;;-141.84;58.94;22058.22;5055029;28;20275;-60
2023/08/24 07:57:00;;;;;;;6.47;4.18;;;;;;;-141.84;57.88;22094.81;5055142;28;20222;-60
2023/08/24 07:59:29;;;;;;;7.47;4.75;;;;;;;-141.84;57.11;22163.94;5055038;28;20201;-60
2023/08/24 08:01:57;;;;;;;5.40;4.40;;;;;;;-141.84;55.99;22208.69;5054758;28;20685;-60
2023/08/24 08:04:27;;;;;;;4.65;4.10;;;;;;;-141.84;55.90;22312.41;5054931;28;20736;-59
2023/08/24 08:06:56;;;;;;;7.03;4.72;;;;;;;-141.84;54.60;22405.97;5054701;28;20739;-59
2023/08/24 08:09:24;;;;;;;5.22;4.10;;;;;;;-141.84;53.33;22420.19;5054809;28;20288;-60
2023/08/24 08:11:53;;;;;;;5.70;3.88;;;;;;;-141.84;52.92;22489.34;5055120;28;20296;-61
2023/08/24 08:14:21;;;;;;;4.32;3.72;;;;;;;-141.84;52.69;22599.16;5054624;28;20676;-59
2023/08/24 08:16:50;;;;;;;4.22;3.83;;;;;;;-141.84;50.62;22713.06;5054136;28;20822;-60
2023/08/24 08:19:19;;;;;;;4.65;3.40;;;;;;;-141.84;50.22;22835.09;5054548;28;20202;-59
2023/08/24 08:21:50;;;;;;;5.70;3.90;;;;;;;-141.84;47.83;22973.41;5054682;28;20335;-61
2023/08/24 08:24:18;;;;;;;4.53;3.63;;;;;;;-141.84;47.18;23099.50;5054608;28;20205;-59
2023/08/24 08:26:54;;;;;;;6.07;3.33;;;;;;;-141.84;47.56;23140.19;5054717;28;20564;-59
2023/08/24 08:29:22;;;;;;;4.82;3.25;;;;;;;-141.84;46.58;23189.00;5054501;28;20286;-60
2023/08/24 08:31:51;;;;;;;4.25;3.42;;;;;;;-141.84;45.90;23321.22;5054561;28;20216;-60
2023/08/24 08:34:19;;;;;;;5.15;3.30;;;;;;;-141.84;44.68;23355.81;5054365;28;20205;-59
2023/08/24 08:36:49;;;;;;;3.28;2.92;;;;;;;-141.84;44.86;23402.59;5054378;28;20220;-60
2023/08/24 08:39:18;;;;;;;4.05;3.50;;;;;;;-141.84;45.92;23384.28;5053235;28;20660;-60
2023/08/24 08:41:48;;;;;;;3.50;3.20;;;;;;;-141.84;46.75;23325.31;5014617;28;20206;-60
2023/08/24 08:44:18;;;;;;;4.38;3.40;;;;;;;-141.84;46.80;23319.19;5014232;28;20230;-59
2023/08/24 08:46:48;;;;;;;8.18;3.42;;;;;;;-141.84;45.74;23465.66;5032494;28;20198;-60
2023/08/24 08:49:19;;;;;;;4.72;3.35;;;;;;;-141.84;46.61;23404.63;5054044;28;20185;-61
2023/08/24 08:51:49;;;;;;;3.95;3.28;;;;;;;-141.84;45.99;23467.69;5053981;28;20186;-60
2023/08/24 08:54:18;;;;;;;3.30;3.00;;;;;;;-141.84;45.56;23445.31;5053987;28;20205;-60
2023/08/24 08:56:46;;;;;;;4.05;3.13;;;;;;;-141.84;44.80;23534.84;5053595;28;20718;-60
2023/08/24 08:59:16;;;;;;;3.83;3.33;;;;;;;-141.84;44.87;23424.97;5053678;28;20735;-60
2023/08/24 09:01:47;;;;;;;5.18;3.55;;;;;;;-141.84;45.54;23461.59;5053914;28;20220;-60
2023/08/24 09:04:16;;;;;;;3.33;3.03;;;;;;;-141.84;44.30;23518.56;5053768;28;20285;-60
2023/08/24 09:06:45;;;;;;;5.00;3.58;;;;;;;-141.84;45.16;23388.38;5053983;28;20204;-61
2023/08/24 09:09:16;;;;;;;5.38;3.90;;;;;;;-141.84;46.18;23408.72;5053836;28;20205;-60
2023/08/24 09:11:48;;;;;;;5.20;3.30;;;;;;;-141.84;45.99;23437.19;5053825;28;20209;-60
2023/08/24 09:14:16;;;;;;;4.90;3.67;;;;;;;-141.84;47.97;23355.81;5053831;28;20189;-59
2023/08/24 09:16:45;;;;;;;3.92;3.55;;;;;;;-141.84;47.56;23357.84;5053481;28;20228;-61
2023/08/24 09:19:14;;;;;;;8.30;3.78;;;;;;;-141.84;47.86;23331.41;5053382;28;20193;-60
2023/08/24 09:21:42;;;;;;;5.22;3.63;;;;;;;-141.84;47.73;23380.22;5053365;28;20316;-60
2023/08/24 09:24:14;;;;;;;5.88;3.97;;;;;;;-141.84;47.11;23445.31;5053095;28;20202;-60
2023/08/24 09:26:43;;;;;;;6.03;3.80;;;;;;;-141.84;47.69;23416.84;5053112;28;20672;-60
2023/08/24 09:29:16;;;;;;;4.03;3.63;;;;;;;-141.84;46.00;23469.72;5053461;28;20573;-61
2023/08/24 09:31:45;;;;;;;3.70;3.40;;;;;;;-141.84;45.49;23492.09;5053022;28;20572;-60
2023/08/24 09:34:14;;;;;;;6.35;3.58;;;;;;;-141.84;44.92;23583.66;5053202;28;20197;-59
2023/08/24 09:36:43;;;;;;;3.60;3.30;;;;;;;-141.84;44.48;23567.38;5052974;28;20228;-59
2023/08/24 09:39:19;;;;;;;4.40;3.60;;;;;;;-141.84;45.18;23571.44;5052787;28;20190;-60
2023/08/24 09:41:50;;;;;;;3.40;3.10;;;;;;;-141.84;44.86;23608.06;5013577;28;20228;-61
2023/08/24 09:44:19;;;;;;;3.75;3.38;;;;;;;-141.84;45.31;23632.47;5013095;28;20234;-60
2023/08/24 09:46:47;;;;;;;4.63;3.60;;;;;;;-141.84;44.99;23652.81;5031690;28;20202;-60
2023/08/24 09:49:16;;;;;;;4.82;3.78;;;;;;;-141.84;45.37;23689.44;5052901;28;20284;-60
2023/08/24 09:51:45;;;;;;;7.05;3.75;;;;;;;-141.84;45.22;23722.00;5053222;28;20211;-60
2023/08/24 09:54:18;;;;;;;5.53;3.38;;;;;;;-141.84;45.05;23728.09;5052598;28;20672;-60
2023/08/24 09:56:50;;;;;;;4.97;3.65;;;;;;;-141.84;44.66;23697.56;5052948;28;20209;-59
2023/08/24 09:59:24;;;;;;;4.60;3.60;;;;;;;-141.84;44.54;23752.50;5052892;28;20201;-59
2023/08/24 10:01:56;;;;;;;6.65;3.33;;;;;;;-141.84;43.91;23785.06;5052524;28;20624;-59
2023/08/24 10:04:26;;;;;;;5.60;3.30;;;;;;;-141.84;43.30;23868.47;5012826;28;20653;-59
2023/08/24 10:07:05;;;;;;;5.25;3.42;;;;;;;-141.84;42.49;23809.47;5012997;28;20208;-60
2023/08/24 10:09:39;;;;;;;7.18;4.32;;;;;;;-141.84;43.20;23793.19;5012599;28;20241;-59
2023/08/24 10:12:10;;;;;;;5.13;3.97;;;;;;;-141.84;43.50;23835.91;5012894;28;20187;-60
2023/08/24 10:14:48;;;;;;;5.07;3.70;;;;;;;-141.84;43.78;23827.78;5012830;28;20233;-61
2023/08/24 10:17:17;;;;;;;5.45;4.30;;;;;;;-141.84;43.43;23803.38;5038562;28;20710;-60
2023/08/24 10:19:47;;;;;;;6.75;3.88;;;;;;;-141.84;44.31;23760.66;5052256;28;20202;-62
2023/08/24 10:22:16;;;;;;;4.15;3.30;;;;;;;-141.84;44.45;23726.06;5052387;28;20316;-59
2023/08/24 10:24:48;;;;;;;3.55;3.17;;;;;;;-141.84;43.95;23642.66;5051907;28;20687;-60
2023/08/24 10:27:17;;;;;;;4.43;3.53;;;;;;;-141.84;44.31;23628.41;5052214;28;20605;-60
2023/08/24 10:29:46;;;;;;;15.95;11.63;;;;;;;-141.84;44.79;23634.50;5052081;28;20205;-59
2023/08/24 10:32:15;;;;;;;11.65;9.50;;;;;;;-141.84;45.80;23640.63;5052132;28;20201;-60
2023/08/24 10:34:44;;;;;;;5.97;4.57;;;;;;;-141.84;45.19;23557.22;5051960;28;20290;-60
2023/08/24 10:37:13;;;;;;;4.78;4.38;;;;;;;-141.84;46.11;23524.66;5051766;28;20727;-60
2023/08/24 10:39:47;;;;;;;4.00;3.70;;;;;;;-141.84;46.46;23445.31;5048981;28;21076;-60
2023/08/24 10:42:16;;;;;;;4.38;3.92;;;;;;;-141.84;45.72;23398.53;5031911;28;20217;-60
2023/08/24 10:44:46;;;;;;;4.25;3.70;;;;;;;-141.84;45.57;23479.91;5031878;28;20322;-60
2023/08/24 10:47:16;;;;;;;5.65;3.42;;;;;;;-141.84;45.76;23524.66;5044906;28;20570;-60
2023/08/24 10:49:57;;;;;;;4.07;3.67;;;;;;;-141.84;45.74;23547.03;5051469;28;20197;-61
2023/08/24 10:52:30;;;;;;;4.20;3.60;;;;;;;-141.84;46.40;23549.06;5051965;28;20198;-60
2023/08/24 10:55:03;;;;;;;7.05;4.10;;;;;;;-141.84;45.29;23628.41;5051862;28;20192;-60
2023/08/24 10:57:38;;;;;;;6.45;4.00;;;;;;;-141.84;45.66;23542.97;5051810;28;20294;-61
2023/08/24 11:00:09;;;;;;;4.65;3.80;;;;;;;-141.84;45.38;23561.28;5051785;28;20193;-59
2023/08/24 11:02:49;;;;;;;5.55;3.53;;;;;;;-141.84;45.49;23449.38;5050814;28;20626;-61
2023/08/24 11:05:21;;;;;;;4.38;3.70;;;;;;;-141.84;45.49;23502.28;5051756;28;20192;-59
2023/08/24 11:07:54;;;;;;;4.80;4.32;;;;;;;-141.84;45.12;23465.66;5051599;28;20536;-60
2023/08/24 11:10:26;;;;;;;4.07;3.60;;;;;;;-141.84;46.14;23414.81;5051496;28;20204;-60
2023/08/24 11:13:12;;;;;;;5.15;3.97;;;;;;;-141.84;46.29;23412.78;5051676;28;20243;-62
2023/08/24 11:15:42;;;;;;;4.70;3.90;;;;;;;-141.84;46.48;23374.13;5051491;28;20652;-61
2023/08/24 11:18:31;;;;;;;3.78;3.47;;;;;;;-141.84;46.80;23341.56;5011713;28;20207;-61
2023/08/24 11:21:03;;;;;;;6.68;4.60;;;;;;;-141.84;46.21;23313.09;5011921;28;20187;-60
2023/08/24 11:23:32;;;;;;;4.35;3.88;;;;;;;-141.84;46.79;23351.75;5011652;28;20537;-60
2023/08/24 11:26:02;;;;;;;5.03;3.70;;;;;;;-141.84;46.35;23469.72;5011508;28;20576;-61